Aérodrome :
LOGIN :

S'inscrire | Disclaimer

   EN    FR    IT 

 










Légende :    VFR   VFR Marginal   IFR   IFR Intensif   IFR Très Intensif
Visi : 
Plafond : 
>= 8 km
>= 3000ft
5 à 8 km
1000 à 3000 ft
1500m à 5 km
500 à 1000 ft
800 à 1500m
200 à 500 ft
< 800m
< 200 ft
Symboles :   Orages  Brouillard  Fortes neiges  Fortes précipitations  Vent > 20 kt
SIGMETs :   Divers  Orages  Givrage  Turbulence  Onde Orograph.  Cendres Volcan.







- Altitude de l'aérodrome : 162 ft
- Code IATA : BOD
- Voir les cartes d'approche


LFBD - Bordeaux / Merignac

DERNIER METAR :
  • 251100Z AUTO 31010KT 9999 SCT015/// BKN020/// BKN025/// ///CB 20/16 Q1020 TEMPO 4000 SHRA BKN012CB

METARs EXPIRÉS :
  • 251030Z AUTO 31011KT 9999 VCTS SCT012/// BKN026/// BKN040/// ///CB 20/17 Q1020 TEMPO 4000 SHRA BKN012CB
  • 251000Z AUTO 28010KT 9999 R23/1400U VCTS SCT018/// BKN030/// BKN049/// ///CB 18/17 Q1020 TEMPO 2000 TSRA BKN012CB
  • 250930Z AUTO 25010KT 9999 SCT015/// BKN021/// BKN029/// ///CB 21/16 Q1020 TEMPO 2000 TSRA BKN012CB
  • 250900Z AUTO 27008KT 240V300 9999 BKN010/// BKN018/// BKN230/// ///TCU 19/17 Q1020 TEMPO 2000 TSRA BKN012CB
  • 250830Z AUTO 24005KT 9999 FEW006 BKN074 18/16 Q1020 TEMPO 2000 TSRA BKN012CB

TAF TAF LFBD
Valide du 25 à 12h jusqu'au 26 à 18h UTC


251100Z 2512/2618 29010KT 9999 BKN025
PROB40
TEMPO 2512/2515 4000 SHRA BKN020TCU
BECMG 2520/2522 VRB02KT
BECMG 2609/2611 04005KT TX23/2613Z TN13/2604Z
ATIS : +33 5 57 92 81 04
Pas de NOTAMs connus pour ce terrain.
2 SIGMETs publiés pour la FIR Bordeaux (LFBB) :
 
Orages noyés dans la masse
LFBB SIGMET 7 VALID 251130/251300 LFPW
LFBB BORDEAUX FIR/UIR EMBD TS OBS WI N4245 E00230 - N4215 E00230 - N4230 E00130 - N4300 E00145 TOP FL340 MOV E 15KT NC=
Orages noyés dans la masse
LFBB SIGMET 6 VALID 251030/251130 LFPW
LFBB BORDEAUX FIR/UIR EMBD TS OBS WI N4230 E00130 - N4230 E00045 - N4345 E00145 - N4330 E00230 TOP FL340 MOV NE 20KT NC=



MET'MAP, la Météo Aéronautique d'un coup d'oeil ! - Copyright ORBIFLY Décembre 2007 - Disclaimer

ORBIFLY MET'MAP TEAM :

Programmation & Développement : Alexandra Zaïnal
Conception & Développement : Baudouin d'Aumeries
Co-Programmation & Développement : Marc-Olivier Méhu
Soutien technique & logistique : Manuel Goepfert

Contact : metmap@orbifly.com




SOURCES & CREDITS :

   NOAA